Krabi, Thailand

11:29 PM ICT on July 23, 2016 (GMT +0700)
Ao Nang, Krabi | | Change Station

Elev 177 ft 8.05 °N, 98.84 °E | Updated 2 minutes ago

Light Rain
Light Rain
79.9 °F
Feels Like 86 °F
N
0.0
Wind Variable Wind from North
Gusts 0.0 mph

Today
High -- | Low -- °F
--% Chance of Precip.
Yesterday
High -- | Low -- °F
Precip. -- in
Pressure 29.89 in
Visibility 3.7 miles
Clouds Few 1800 ft
Few 2000 ft
Scattered Clouds 10000 ft
Heat Index 86 °F
Dew Point 77 °F
Humidity 91%
Rainfall in
Snow Depth Not available.
6:15 AM 6:46 PM
Waning Gibbous, 84% visible
METAR VTSP 231600Z VRB02KT 6000 -RA FEW018 FEW020CB SCT100 26/24 Q1012 A2990 NOSIG
Pressure 29.89 in
Visibility 3.7 miles
Clouds Few 1800 ft
Few 2000 ft
Scattered Clouds 10000 ft
Heat Index 86 °F
Dew Point 77 °F
Humidity 91%
Rainfall in
Snow Depth Not available.
6:15 AM 6:46 PM
Waning Gibbous, 84% visible
METAR VTSP 231600Z VRB02KT 6000 -RA FEW018 FEW020CB SCT100 26/24 Q1012 A2990 NOSIG

10-Day Weather Forecast

No radar image for this location.
×

Almanac

Astronomy

Jul. 23, 2016 Rise Set
Actual Time
Civil Twilight
Nautical Twilight
Astronomical Twilight
Moon
Length of Visible Light
Length of Day
Tomorrow will be .
, % of the Moon is Illuminated

Today's Extremes

Country Highs Country Lows

Community

WunderPhotos

Upload Photos

1,926,858 photos uploaded!

WunderBlog® & News

Nearby

Air Quality

  Air Quality AQ Index Pollutant
Not available.

Snow Depth

Station Depth Elevation

Earthquake Activity

City Distance Mag. Time & Date
Minimum magnitude displayed is 2.5.

Coastal Water Temperatures

Place Temperature

Stations

Nearby Weather Stations

Station Location Temp. Windchill Dew Point Humidity Wind Precip. Elev Updated Type